createdAt,value
2019-05-16T00:00:41.920Z,10.81
2019-05-16T00:03:13.293Z,10.95
2019-05-16T00:05:51.442Z,11.03
2019-05-16T00:08:13.622Z,10.94
2019-05-16T00:10:43.051Z,10.90
2019-05-16T00:13:14.012Z,11.08
2019-05-16T00:15:45.463Z,10.85
2019-05-16T00:18:17.982Z,10.97
2019-05-16T00:20:49.242Z,11.00
2019-05-16T00:23:20.851Z,11.06
2019-05-16T00:25:51.328Z,11.19
2019-05-16T00:28:21.600Z,11.16
2019-05-16T00:30:52.941Z,11.26
2019-05-16T00:33:22.388Z,11.24
2019-05-16T00:36:02.666Z,11.06
2019-05-16T00:38:27.832Z,11.06
2019-05-16T00:41:01.445Z,10.93
2019-05-16T00:43:30.885Z,10.81
2019-05-16T00:46:01.132Z,10.86
2019-05-16T00:48:31.666Z,10.75
2019-05-16T00:51:07.807Z,10.57
2019-05-16T00:53:40.542Z,10.56
2019-05-16T00:56:11.873Z,10.56
2019-05-16T00:58:42.221Z,10.50
2019-05-16T01:01:12.820Z,10.66
2019-05-16T01:03:42.508Z,10.54
2019-05-16T01:06:19.260Z,10.63
2019-05-16T01:08:43.642Z,10.52
2019-05-16T01:11:13.321Z,10.56
2019-05-16T01:13:42.470Z,10.58
2019-05-16T01:16:15.946Z,10.39
2019-05-16T01:18:48.408Z,10.46
2019-05-16T01:21:18.840Z,10.45
2019-05-16T01:23:52.454Z,10.63
2019-05-16T01:26:22.533Z,10.49
2019-05-16T01:28:51.719Z,10.51
2019-05-16T01:31:23.214Z,10.65
2019-05-16T01:33:52.656Z,10.73
2019-05-16T01:36:34.246Z,10.72
2019-05-16T01:38:58.515Z,10.71
2019-05-16T01:41:32.784Z,10.73
2019-05-16T01:44:03.571Z,10.68
2019-05-16T01:46:34.826Z,10.49
2019-05-16T01:49:08.081Z,10.14
2019-05-16T01:51:37.971Z,10.27
2019-05-16T01:54:08.750Z,10.15
2019-05-16T01:56:39.797Z,9.95
2019-05-16T01:59:09.818Z,10.12
2019-05-16T02:01:40.880Z,10.14
2019-05-16T02:04:12.262Z,10.00
2019-05-16T02:06:51.773Z,10.22
2019-05-16T02:09:18.845Z,10.17
2019-05-16T02:11:49.810Z,10.16
2019-05-16T02:14:19.926Z,10.12
2019-05-16T02:16:49.376Z,10.22
2019-05-16T02:19:21.173Z,10.33
2019-05-16T02:21:50.823Z,10.38
2019-05-16T02:24:22.494Z,10.42
2019-05-16T02:26:54.728Z,10.28
2019-05-16T02:29:25.242Z,10.29
2019-05-16T02:31:54.924Z,10.26
2019-05-16T02:34:24.209Z,10.28
2019-05-16T02:37:14.710Z,10.33
2019-05-16T02:39:25.510Z,10.34
2019-05-16T02:41:54.938Z,10.35
2019-05-16T02:44:26.987Z,10.42
2019-05-16T02:46:56.445Z,10.54
2019-05-16T02:49:27.094Z,10.50
2019-05-16T02:51:57.016Z,10.59
2019-05-16T02:54:26.320Z,10.38
2019-05-16T02:56:57.844Z,10.36
2019-05-16T02:59:31.399Z,10.47
2019-05-16T03:02:02.958Z,10.45
2019-05-16T03:04:32.651Z,10.20
2019-05-16T03:07:05.848Z,10.25
2019-05-16T03:09:41.179Z,10.32
2019-05-16T03:12:14.919Z,10.42
2019-05-16T03:14:50.376Z,10.32
2019-05-16T03:17:23.725Z,10.30
2019-05-16T03:19:56.419Z,10.27
2019-05-16T03:22:31.806Z,10.22
2019-05-16T03:25:02.355Z,10.13
2019-05-16T03:27:31.508Z,10.09
2019-05-16T03:30:02.562Z,10.01
2019-05-16T03:32:43.746Z,9.84
2019-05-16T03:35:15.384Z,9.98
2019-05-16T03:37:54.967Z,9.91
2019-05-16T03:40:16.349Z,9.90
2019-05-16T03:42:51.703Z,9.96
2019-05-16T03:45:21.291Z,10.02
2019-05-16T03:47:51.753Z,10.01
2019-05-16T03:50:22.065Z,9.95
2019-05-16T03:52:56.622Z,10.02
2019-05-16T03:55:31.570Z,9.88
2019-05-16T03:58:01.807Z,9.89
2019-05-16T04:00:52.061Z,9.96
2019-05-16T04:03:28.102Z,9.93
2019-05-16T04:05:55.382Z,10.01
2019-05-16T04:08:25.840Z,9.90
2019-05-16T04:10:56.279Z,9.90
2019-05-16T04:13:31.385Z,10.06
2019-05-16T04:16:03.793Z,9.74
2019-05-16T04:18:36.989Z,9.78
2019-05-16T04:21:12.303Z,9.81
2019-05-16T04:23:45.098Z,9.94
2019-05-16T04:26:22.127Z,9.80
2019-05-16T04:28:51.899Z,9.83
2019-05-16T04:31:25.721Z,9.93
2019-05-16T04:33:56.474Z,10.01
2019-05-16T04:36:26.210Z,9.95
2019-05-16T04:38:55.367Z,10.08
2019-05-16T04:41:26.061Z,10.18
2019-05-16T04:44:00.566Z,9.93
2019-05-16T04:46:31.378Z,10.01
2019-05-16T04:49:02.118Z,9.85
2019-05-16T04:51:37.232Z,9.89
2019-05-16T04:54:07.104Z,9.80
2019-05-16T04:56:36.594Z,9.69
2019-05-16T04:59:05.859Z,9.68
2019-05-16T05:01:35.048Z,9.82
2019-05-16T05:04:10.815Z,9.87
2019-05-16T05:06:37.034Z,9.81
2019-05-16T05:09:11.658Z,9.69
2019-05-16T05:11:41.864Z,9.64
2019-05-16T05:14:11.498Z,9.78
2019-05-16T05:16:41.284Z,9.80
2019-05-16T05:19:11.434Z,9.91
2019-05-16T05:21:41.751Z,9.89
2019-05-16T05:24:15.581Z,9.81
2019-05-16T05:26:45.579Z,9.72
2019-05-16T05:29:14.982Z,9.67
2019-05-16T05:31:54.235Z,9.65
2019-05-16T05:34:19.854Z,9.72
2019-05-16T05:36:51.160Z,9.66
2019-05-16T05:39:20.879Z,9.51
2019-05-16T05:41:54.787Z,9.60
2019-05-16T05:44:23.991Z,9.66
2019-05-16T05:46:54.222Z,9.61
2019-05-16T05:49:23.968Z,9.64
2019-05-16T05:52:20.856Z,9.66
2019-05-16T05:54:50.418Z,9.75
2019-05-16T05:57:21.028Z,9.45
2019-05-16T05:59:50.478Z,9.64
2019-05-16T06:02:20.878Z,9.71
2019-05-16T06:04:50.527Z,9.76
2019-05-16T06:07:23.370Z,9.73
2019-05-16T06:09:56.441Z,9.67
2019-05-16T06:12:24.499Z,9.80
2019-05-16T06:14:54.240Z,10.00
2019-05-16T06:17:24.074Z,10.08
2019-05-16T06:19:54.296Z,10.06
2019-05-16T06:22:29.907Z,9.66
2019-05-16T06:25:01.158Z,9.71
2019-05-16T06:27:31.913Z,9.82
2019-05-16T06:30:02.357Z,9.68
2019-05-16T06:32:34.381Z,9.83
2019-05-16T06:35:09.901Z,9.99
2019-05-16T06:37:40.753Z,10.07
2019-05-16T06:40:11.845Z,9.92
2019-05-16T06:42:41.312Z,9.88
2019-05-16T06:45:11.360Z,10.13
2019-05-16T06:47:40.826Z,9.86
2019-05-16T06:50:11.605Z,9.94
2019-05-16T06:52:47.334Z,9.98
2019-05-16T06:55:17.258Z,10.01
2019-05-16T06:57:46.843Z,9.85
2019-05-16T07:00:16.776Z,9.91
2019-05-16T07:02:46.600Z,10.09
2019-05-16T07:05:20.532Z,9.96
2019-05-16T07:07:52.330Z,9.95
2019-05-16T07:10:26.087Z,9.91
2019-05-16T07:12:56.314Z,9.94
2019-05-16T07:15:29.859Z,9.87
2019-05-16T07:17:59.794Z,9.92
2019-05-16T07:20:30.198Z,9.93
2019-05-16T07:23:00.923Z,10.06
2019-05-16T07:25:30.530Z,10.29
2019-05-16T07:28:00.703Z,10.04
2019-05-16T07:30:30.365Z,10.19
2019-05-16T07:33:00.285Z,10.04
2019-05-16T07:35:30.773Z,10.15
2019-05-16T07:38:05.945Z,10.11
2019-05-16T07:40:35.165Z,10.04
2019-05-16T07:43:05.243Z,10.34
2019-05-16T07:45:37.833Z,10.44
2019-05-16T07:48:06.965Z,10.58
2019-05-16T07:50:37.007Z,10.56
2019-05-16T07:53:06.214Z,10.60
2019-05-16T07:55:35.489Z,10.51
2019-05-16T07:58:04.964Z,10.14
2019-05-16T08:00:49.698Z,9.88
2019-05-16T08:03:05.607Z,9.84
2019-05-16T08:05:35.140Z,10.15
2019-05-16T08:08:04.926Z,10.05
2019-05-16T08:10:41.696Z,10.29
2019-05-16T08:13:05.240Z,10.32
2019-05-16T08:15:34.449Z,10.14
2019-05-16T08:18:04.411Z,10.07
2019-05-16T08:20:37.988Z,10.03
2019-05-16T08:23:07.225Z,10.09
2019-05-16T08:25:40.658Z,10.27
2019-05-16T08:28:11.650Z,10.34
2019-05-16T08:33:13.567Z,10.58
2019-05-16T08:35:42.950Z,10.53
2019-05-16T08:38:13.661Z,10.52
2019-05-16T08:41:04.654Z,10.65
2019-05-16T08:43:13.799Z,10.51
2019-05-16T08:45:43.053Z,10.74
2019-05-16T08:48:12.213Z,10.86
2019-05-16T08:50:49.594Z,11.13
2019-05-16T08:53:13.964Z,11.05
2019-05-16T08:55:44.099Z,11.31
2019-05-16T08:58:13.765Z,11.32
2019-05-16T09:00:44.159Z,11.41
2019-05-16T09:03:13.631Z,11.32
2019-05-16T09:05:43.108Z,11.41
2019-05-16T09:08:13.492Z,11.51
2019-05-16T09:10:34.819Z,10.64
2019-05-16T09:10:59.120Z,11.90
2019-05-16T09:13:17.582Z,11.37
2019-05-16T09:15:48.047Z,11.58
2019-05-16T09:18:17.947Z,11.59
2019-05-16T09:20:49.926Z,12.01
2019-05-16T09:23:18.176Z,12.09
2019-05-16T09:25:48.838Z,12.37
2019-05-16T09:28:18.208Z,11.84
2019-05-16T09:30:47.781Z,11.99
2019-05-16T09:33:17.865Z,12.45
2019-05-16T09:35:48.022Z,12.63
2019-05-16T09:38:22.879Z,12.43
2019-05-16T09:40:48.480Z,12.68
2019-05-16T09:43:18.096Z,12.83
2019-05-16T09:45:47.615Z,13.18
2019-05-16T09:48:18.832Z,13.42
2019-05-16T09:50:47.859Z,13.48
2019-05-16T09:53:17.433Z,13.43
2019-05-16T09:55:47.340Z,13.66
2019-05-16T09:58:18.018Z,13.73
2019-05-16T10:00:48.131Z,13.31
2019-05-16T10:03:21.965Z,13.26
2019-05-16T10:05:48.381Z,13.66
2019-05-16T10:08:17.621Z,13.78
2019-05-16T10:10:46.756Z,13.80
2019-05-16T10:13:18.297Z,13.64
2019-05-16T10:15:47.548Z,14.11
2019-05-16T10:18:17.160Z,14.56
2019-05-16T10:20:46.342Z,15.22
2019-05-16T10:23:18.029Z,15.54
2019-05-16T10:25:48.551Z,15.87
2019-05-16T10:28:20.025Z,16.09
2019-05-16T10:30:50.132Z,15.43
2019-05-16T10:33:19.658Z,15.57
2019-05-16T10:35:49.150Z,15.46
2019-05-16T10:38:19.167Z,15.12
2019-05-16T10:40:48.315Z,15.28
2019-05-16T10:43:17.802Z,15.29
2019-05-16T10:45:47.305Z,15.74
2019-05-16T10:48:17.581Z,15.96
2019-05-16T10:50:47.774Z,16.02
2019-05-16T10:53:52.319Z,15.74
2019-05-16T10:55:48.575Z,15.88
2019-05-16T10:58:32.925Z,16.06
2019-05-16T11:01:11.025Z,16.22
2019-05-16T11:03:21.052Z,15.65
2019-05-16T11:06:03.061Z,15.76
2019-05-16T11:08:21.423Z,15.93
2019-05-16T11:10:50.713Z,16.26
2019-05-16T11:13:20.654Z,16.36
2019-05-16T11:15:51.028Z,16.37
2019-05-16T11:18:20.887Z,15.99
2019-05-16T11:20:50.969Z,15.83
2019-05-16T11:23:30.661Z,15.73
2019-05-16T11:26:01.085Z,15.71
2019-05-16T11:28:32.305Z,16.00
2019-05-16T11:31:03.703Z,16.13
2019-05-16T11:33:33.257Z,15.82
2019-05-16T11:36:02.449Z,16.06
2019-05-16T11:38:43.721Z,15.97
2019-05-16T11:41:16.716Z,15.17
2019-05-16T11:43:47.505Z,15.09
2019-05-16T11:46:18.499Z,15.01
2019-05-16T11:48:49.057Z,14.71
2019-05-16T11:51:23.804Z,14.88
2019-05-16T11:53:59.722Z,15.00
2019-05-16T11:56:27.893Z,14.98
2019-05-16T11:58:57.257Z,15.20
2019-05-16T12:01:27.497Z,15.33
2019-05-16T12:03:57.701Z,15.46
2019-05-16T12:06:30.515Z,15.06
2019-05-16T12:09:03.811Z,14.79
2019-05-16T12:11:33.680Z,14.53
2019-05-16T12:14:02.864Z,14.97
2019-05-16T12:16:33.445Z,14.92
2019-05-16T12:19:03.003Z,14.72
2019-05-16T12:21:34.935Z,14.74
2019-05-16T12:24:07.459Z,14.69
2019-05-16T12:26:37.226Z,14.60
2019-05-16T12:29:07.530Z,14.80
2019-05-16T12:31:37.634Z,14.42
2019-05-16T12:34:09.439Z,14.47
2019-05-16T12:36:41.655Z,14.57
2019-05-16T12:39:13.566Z,14.57
2019-05-16T12:41:42.794Z,14.47
2019-05-16T12:44:11.965Z,14.40
2019-05-16T12:46:43.938Z,14.71
2019-05-16T12:49:13.661Z,14.15
2019-05-16T12:51:43.083Z,14.01
2019-05-16T12:54:17.974Z,14.03
2019-05-16T12:56:48.241Z,13.86
2019-05-16T12:59:21.559Z,13.67
2019-05-16T13:01:51.536Z,13.40
2019-05-16T13:04:20.738Z,13.07
2019-05-16T13:06:54.147Z,12.80
2019-05-16T13:09:26.573Z,12.59
2019-05-16T13:11:57.764Z,12.82
2019-05-16T13:14:28.893Z,12.71
2019-05-16T13:17:07.433Z,12.70
2019-05-16T13:19:44.704Z,12.92
2019-05-16T13:22:16.656Z,12.58
2019-05-16T13:24:48.056Z,12.52
2019-05-16T13:27:22.819Z,12.47
2019-05-16T13:29:51.708Z,12.20
2019-05-16T13:32:21.832Z,12.46
2019-05-16T13:34:59.186Z,12.74
2019-05-16T13:37:31.493Z,12.77
2019-05-16T13:40:01.889Z,12.52
2019-05-16T13:42:33.242Z,12.42
2019-05-16T13:45:06.802Z,12.51
2019-05-16T13:47:37.873Z,12.83
2019-05-16T13:50:12.068Z,12.76
2019-05-16T13:52:41.374Z,12.45
2019-05-16T13:55:12.084Z,12.60
2019-05-16T13:57:43.738Z,12.45
2019-05-16T14:00:17.322Z,12.28
2019-05-16T14:02:47.593Z,11.90
2019-05-16T14:05:21.078Z,11.95
2019-05-16T14:07:57.240Z,12.11
2019-05-16T14:10:29.885Z,12.18
2019-05-16T14:12:59.804Z,12.08
2019-05-16T14:15:30.319Z,12.22
2019-05-16T14:18:00.073Z,12.27
2019-05-16T14:20:32.365Z,12.41
2019-05-16T14:23:04.569Z,12.10
2019-05-16T14:25:38.110Z,12.33
2019-05-16T14:28:08.244Z,12.19
2019-05-16T14:30:39.546Z,12.12
2019-05-16T14:33:13.819Z,11.76
2019-05-16T14:35:40.896Z,11.83
2019-05-16T14:38:11.969Z,12.24
2019-05-16T14:40:49.835Z,12.15
2019-05-16T14:43:17.383Z,12.16
2019-05-16T14:45:50.108Z,11.82
2019-05-16T14:48:24.172Z,11.99
2019-05-16T14:50:57.311Z,11.87
2019-05-16T14:53:28.418Z,11.79
2019-05-16T14:55:59.933Z,11.70
2019-05-16T14:58:30.848Z,11.66
2019-05-16T15:01:02.652Z,11.74
2019-05-16T15:03:38.441Z,11.46
2019-05-16T15:06:10.073Z,11.26
2019-05-16T15:08:42.603Z,11.41
2019-05-16T15:11:17.909Z,11.58
2019-05-16T15:13:47.635Z,11.10
2019-05-16T15:16:20.215Z,11.39
2019-05-16T15:18:57.591Z,11.30
2019-05-16T15:21:30.106Z,11.04
2019-05-16T15:24:01.633Z,11.02
2019-05-16T15:26:33.943Z,10.80
2019-05-16T15:29:07.907Z,11.11
2019-05-16T15:31:39.599Z,11.04
2019-05-16T15:34:08.155Z,11.09
2019-05-16T15:36:40.880Z,11.22
2019-05-16T15:39:10.375Z,11.15
2019-05-16T15:42:02.934Z,11.17
2019-05-16T15:44:37.315Z,11.14
2019-05-16T15:47:08.009Z,11.49
2019-05-16T15:49:39.786Z,11.54
2019-05-16T15:52:10.338Z,11.11
2019-05-16T15:54:50.904Z,11.12
2019-05-16T15:57:20.197Z,10.94
2019-05-16T15:59:49.677Z,11.07
2019-05-16T16:02:19.150Z,11.26
2019-05-16T16:04:48.306Z,10.90
2019-05-16T16:07:18.257Z,10.83
2019-05-16T16:09:47.540Z,10.57
2019-05-16T16:12:17.618Z,10.81
2019-05-16T16:14:47.163Z,11.00
2019-05-16T16:17:17.771Z,10.86
2019-05-16T16:19:47.376Z,10.79
2019-05-16T16:22:18.502Z,11.00
2019-05-16T16:24:48.996Z,11.01
2019-05-16T16:27:19.191Z,10.94
2019-05-16T16:29:48.368Z,11.15
2019-05-16T16:32:17.565Z,11.37
2019-05-16T16:34:49.138Z,11.52
2019-05-16T16:37:20.176Z,11.60
2019-05-16T16:39:49.380Z,11.67
2019-05-16T16:42:20.318Z,11.56
2019-05-16T16:44:51.469Z,11.42
2019-05-16T16:47:20.639Z,11.44
2019-05-16T16:49:50.326Z,11.59
2019-05-16T16:52:19.467Z,11.63
2019-05-16T16:54:48.630Z,11.62
2019-05-16T16:57:18.356Z,11.64
2019-05-16T16:59:48.313Z,11.61
2019-05-16T17:02:18.124Z,11.61
2019-05-16T17:04:51.516Z,11.68
2019-05-16T17:07:20.587Z,11.72
2019-05-16T17:09:50.348Z,11.51
2019-05-16T17:12:19.817Z,11.29
2019-05-16T17:14:49.264Z,11.24
2019-05-16T17:17:21.165Z,11.41
2019-05-16T17:19:52.748Z,11.40
2019-05-16T17:22:21.945Z,11.38
2019-05-16T17:24:51.390Z,11.36
2019-05-16T17:27:23.193Z,11.38
2019-05-16T17:29:52.995Z,11.41
2019-05-16T17:32:22.157Z,11.38
2019-05-16T17:34:51.312Z,11.28
2019-05-16T17:37:20.799Z,11.09
2019-05-16T17:39:50.341Z,11.33
2019-05-16T17:42:19.528Z,11.18
2019-05-16T17:44:49.475Z,11.17
2019-05-16T17:47:18.800Z,11.11
2019-05-16T17:49:49.464Z,11.24
2019-05-16T17:52:18.681Z,11.30
2019-05-16T17:54:55.867Z,11.27
2019-05-16T17:57:31.059Z,11.21
2019-05-16T18:00:03.384Z,11.31
2019-05-16T18:02:33.955Z,11.15
2019-05-16T18:05:09.573Z,11.14
2019-05-16T18:07:40.819Z,11.21
2019-05-16T18:10:11.527Z,11.21
2019-05-16T18:12:43.812Z,11.11
2019-05-16T18:15:19.173Z,10.94
2019-05-16T18:17:49.556Z,10.93
2019-05-16T18:20:22.522Z,11.07
2019-05-16T18:22:56.832Z,11.07
2019-05-16T18:25:29.005Z,10.97
2019-05-16T18:28:00.754Z,11.02
2019-05-16T18:30:33.486Z,11.01
2019-05-16T18:33:06.942Z,11.01
2019-05-16T18:35:37.104Z,10.89
2019-05-16T18:38:12.194Z,10.85
2019-05-16T18:40:47.319Z,10.84
2019-05-16T18:43:21.229Z,10.68
2019-05-16T18:45:53.824Z,10.68
2019-05-16T18:48:23.314Z,10.70
2019-05-16T18:50:54.204Z,10.67
2019-05-16T18:53:26.972Z,10.62
2019-05-16T18:56:02.923Z,10.50
2019-05-16T18:58:37.018Z,10.54
2019-05-16T19:01:08.494Z,10.48
2019-05-16T19:03:40.461Z,10.43
2019-05-16T19:06:16.980Z,10.53
2019-05-16T19:08:46.369Z,10.52
2019-05-16T19:11:17.526Z,10.50
2019-05-16T19:13:47.582Z,10.52
2019-05-16T19:16:17.059Z,10.62
2019-05-16T19:18:46.298Z,10.64
2019-05-16T19:21:16.873Z,10.42
2019-05-16T19:23:47.084Z,10.37
2019-05-16T19:26:17.611Z,10.35
2019-05-16T19:28:49.142Z,10.33
2019-05-16T19:31:19.406Z,10.09
2019-05-16T19:33:50.451Z,10.07
2019-05-16T19:36:20.275Z,10.14
2019-05-16T19:38:52.559Z,10.14
2019-05-16T19:41:24.112Z,10.14
2019-05-16T19:43:54.364Z,10.33
2019-05-16T19:46:26.958Z,10.32
2019-05-16T19:48:57.042Z,10.23
2019-05-16T19:51:26.907Z,10.16
2019-05-16T19:53:56.638Z,10.16
2019-05-16T19:56:26.971Z,10.08
2019-05-16T19:58:57.227Z,10.08
2019-05-16T20:01:27.411Z,10.04
2019-05-16T20:03:57.014Z,9.98
2019-05-16T20:06:27.474Z,10.12
2019-05-16T20:08:57.533Z,10.16
2019-05-16T20:11:27.629Z,10.07
2019-05-16T20:13:56.898Z,10.00
2019-05-16T20:16:27.344Z,10.02
2019-05-16T20:18:56.644Z,10.06
2019-05-16T20:21:27.493Z,10.11
2019-05-16T20:23:56.913Z,10.04
2019-05-16T20:26:27.381Z,9.92
2019-05-16T20:28:59.554Z,9.98
2019-05-16T20:31:27.449Z,9.84
2019-05-16T20:33:57.083Z,9.91
2019-05-16T20:36:26.462Z,9.94
2019-05-16T20:38:55.601Z,10.04
2019-05-16T20:41:24.792Z,10.01
2019-05-16T20:43:53.948Z,10.10
2019-05-16T20:46:23.122Z,10.04
2019-05-16T20:48:52.291Z,10.01
2019-05-16T20:51:21.485Z,9.99
2019-05-16T20:53:50.649Z,10.07
2019-05-16T20:56:20.120Z,9.93
2019-05-16T20:58:49.516Z,9.94
2019-05-16T21:01:19.467Z,9.98
2019-05-16T21:03:48.624Z,10.00
2019-05-16T21:06:17.815Z,10.02
2019-05-16T21:08:49.656Z,10.04
2019-05-16T21:11:20.255Z,10.00
2019-05-16T21:13:49.698Z,10.03
2019-05-16T21:16:20.919Z,10.05
2019-05-16T21:18:50.925Z,10.00
2019-05-16T21:21:20.527Z,9.92
2019-05-16T21:23:50.525Z,9.73
2019-05-16T21:26:19.991Z,9.85
2019-05-16T21:28:49.473Z,9.86
2019-05-16T21:31:20.192Z,9.89
2019-05-16T21:33:49.892Z,9.74
2019-05-16T21:36:22.982Z,9.83
2019-05-16T21:38:53.274Z,9.92
2019-05-16T21:41:23.940Z,10.01
2019-05-16T21:43:56.132Z,9.96
2019-05-16T21:46:27.139Z,9.86
2019-05-16T21:48:59.047Z,9.88
2019-05-16T21:51:28.495Z,9.94
2019-05-16T21:54:00.728Z,9.76
2019-05-16T21:56:32.588Z,9.76
2019-05-16T21:59:02.535Z,9.80
2019-05-16T22:01:37.347Z,9.86
2019-05-16T22:04:11.576Z,9.87
2019-05-16T22:06:41.910Z,9.91
2019-05-16T22:09:11.092Z,9.96
2019-05-16T22:11:46.562Z,9.89
2019-05-16T22:14:21.784Z,9.92
2019-05-16T22:16:57.858Z,9.77
2019-05-16T22:19:31.169Z,9.67
2019-05-16T22:22:01.910Z,9.77
2019-05-16T22:24:31.940Z,9.88
2019-05-16T22:27:01.351Z,9.75
2019-05-16T22:29:31.587Z,9.75
2019-05-16T22:32:07.101Z,9.70
2019-05-16T22:34:40.976Z,9.71
2019-05-16T22:37:10.734Z,9.75
2019-05-16T22:39:41.452Z,9.85
2019-05-16T22:42:12.072Z,9.85
2019-05-16T22:44:41.479Z,9.75
2019-05-16T22:47:17.151Z,9.77
2019-05-16T22:49:47.917Z,9.86
2019-05-16T22:52:19.598Z,9.82
2019-05-16T22:54:48.802Z,9.73
2019-05-16T22:57:19.827Z,9.69
2019-05-16T22:59:48.985Z,9.63
2019-05-16T23:02:18.197Z,9.64
2019-05-16T23:04:47.639Z,9.69
2019-05-16T23:07:16.893Z,9.85
2019-05-16T23:09:47.215Z,9.73
2019-05-16T23:12:17.613Z,9.75
2019-05-16T23:14:46.745Z,9.70
2019-05-16T23:17:17.364Z,9.76
2019-05-16T23:19:47.638Z,9.80
2019-05-16T23:22:19.967Z,9.81
2019-05-16T23:24:52.821Z,9.61
2019-05-16T23:27:24.455Z,9.57
2019-05-16T23:29:53.907Z,9.46
2019-05-16T23:32:23.651Z,9.40
2019-05-16T23:34:53.601Z,9.60
2019-05-16T23:37:27.289Z,9.54
2019-05-16T23:39:56.953Z,9.36
2019-05-16T23:42:26.436Z,9.26
2019-05-16T23:44:57.331Z,9.22
2019-05-16T23:47:26.957Z,9.31
2019-05-16T23:49:57.608Z,9.30
2019-05-16T23:52:31.328Z,9.38
2019-05-16T23:55:02.541Z,9.42
2019-05-16T23:57:37.123Z,9.51
